Time;durP1;ratioP1;P1;durP2;ratioP2;P2;SDS_P1;SDS_P2;PMS_P1;PMS_P2;Temp;Humidity;BMP_temperature;BMP_pressure;BME280_temperature;BME280_humidity;BME280_pressure;Samples;Min_cycle;Max_cycle;Signal;HPM_P1;HPM_P2
2024/02/14 00:01:20;;;;;;;8.55;3.47;;;;;;;10.58;100.00;101454.63;5285034;27;20487;-75
2024/02/14 00:03:50;;;;;;;9.40;3.58;;;;;;;10.49;100.00;101448.34;5280881;27;20032;-76
2024/02/14 00:06:21;;;;;;;6.93;3.33;;;;;;;10.59;100.00;101454.50;5288423;27;20015;-75
2024/02/14 00:08:52;;;;;;;6.20;3.42;;;;;;;10.59;100.00;101443.75;5283081;27;20031;-75
2024/02/14 00:11:23;;;;;;;6.80;3.25;;;;;;;10.59;100.00;101438.38;5289253;27;20102;-78
2024/02/14 00:13:55;;;;;;;7.15;3.20;;;;;;;10.51;100.00;101434.78;5281684;28;20023;-74
2024/02/14 00:16:30;;;;;;;6.85;3.25;;;;;;;10.66;100.00;101424.34;5286961;27;20019;-75
2024/02/14 00:19:02;;;;;;;8.82;3.85;;;;;;;10.63;100.00;101428.16;5286701;27;20102;-75
2024/02/14 00:21:34;;;;;;;8.25;3.42;;;;;;;10.66;100.00;101427.88;5279981;28;20058;-75
2024/02/14 00:24:04;;;;;;;10.13;3.20;;;;;;;10.60;100.00;101425.81;5293181;27;20676;-74
2024/02/14 00:26:35;;;;;;;6.10;3.30;;;;;;;10.67;100.00;101428.72;5288301;27;20023;-75
2024/02/14 00:29:06;;;;;;;7.40;3.70;;;;;;;10.66;100.00;101421.66;5283569;27;20028;-75
2024/02/14 00:31:36;;;;;;;7.35;2.95;;;;;;;10.60;100.00;101417.75;5283289;27;20022;-75
2024/02/14 00:34:07;;;;;;;7.05;3.40;;;;;;;10.76;100.00;101430.50;5287376;27;20110;-76
2024/02/14 00:36:37;;;;;;;9.57;4.43;;;;;;;10.81;100.00;101425.50;5287097;27;20177;-74
2024/02/14 00:39:09;;;;;;;7.50;3.53;;;;;;;10.79;100.00;101424.78;5286567;27;20026;-74
2024/02/14 00:41:39;;;;;;;7.50;3.50;;;;;;;10.67;100.00;101417.97;5287402;27;20747;-75
2024/02/14 00:44:10;;;;;;;11.80;3.83;;;;;;;10.68;100.00;101425.03;5284074;27;20020;-75
2024/02/14 00:46:41;;;;;;;8.43;3.70;;;;;;;10.73;100.00;101423.56;5275662;28;20110;-74
2024/02/14 00:49:11;;;;;;;6.18;3.00;;;;;;;10.81;100.00;101420.97;5273056;27;20047;-77
2024/02/14 00:51:42;;;;;;;7.25;3.22;;;;;;;10.80;100.00;101419.31;5285756;27;20019;-75
2024/02/14 00:54:12;;;;;;;7.78;3.67;;;;;;;10.78;100.00;101426.63;5284310;28;20821;-75
2024/02/14 00:56:43;;;;;;;7.80;3.22;;;;;;;10.76;100.00;101425.97;5283395;28;20373;-76
2024/02/14 00:59:13;;;;;;;6.25;3.33;;;;;;;10.82;100.00;101424.50;5286348;27;20016;-75
2024/02/14 01:01:44;;;;;;;5.18;2.92;;;;;;;10.78;100.00;101413.22;5282682;28;20069;-74
2024/02/14 01:04:15;;;;;;;8.70;4.13;;;;;;;10.80;100.00;101423.81;5286687;27;20023;-76
2024/02/14 01:06:45;;;;;;;9.63;4.22;;;;;;;10.78;100.00;101426.63;5281292;28;20392;-75
2024/02/14 01:09:17;;;;;;;5.82;3.40;;;;;;;10.85;100.00;101437.63;5280921;27;20055;-75
2024/02/14 01:11:48;;;;;;;5.50;3.20;;;;;;;10.80;100.00;101430.03;5288299;27;20020;-78
2024/02/14 01:14:19;;;;;;;6.78;3.03;;;;;;;10.81;100.00;101433.56;5284573;28;20469;-75
2024/02/14 01:16:49;;;;;;;6.97;3.70;;;;;;;10.71;100.00;101427.41;5281097;27;20068;-78
2024/02/14 01:19:20;;;;;;;8.48;3.53;;;;;;;10.88;100.00;101437.31;5283298;28;20088;-76
2024/02/14 01:21:50;;;;;;;8.88;3.60;;;;;;;10.95;100.00;101441.06;5281456;28;20016;-75
2024/02/14 01:24:22;;;;;;;8.45;3.38;;;;;;;10.96;100.00;101449.97;5281795;28;20027;-75
2024/02/14 01:26:54;;;;;;;8.27;3.63;;;;;;;10.86;100.00;101447.38;5283042;28;20072;-75
2024/02/14 01:29:25;;;;;;;7.55;4.40;;;;;;;10.90;100.00;101438.00;5286025;27;20024;-75
2024/02/14 01:31:56;;;;;;;16.55;3.78;;;;;;;10.96;100.00;101448.13;5282712;27;20062;-77
2024/02/14 01:34:28;;;;;;;9.10;3.97;;;;;;;10.82;100.00;101443.28;5287859;27;20098;-75
2024/02/14 01:36:58;;;;;;;12.50;4.05;;;;;;;10.96;100.00;101456.19;5289222;27;20073;-75
2024/02/14 01:39:29;;;;;;;9.02;4.30;;;;;;;10.85;100.00;101449.22;5288037;27;20019;-75
2024/02/14 01:41:59;;;;;;;9.05;4.05;;;;;;;10.86;100.00;101450.03;5284021;28;20026;-75
2024/02/14 01:44:30;;;;;;;12.90;4.03;;;;;;;10.90;100.00;101456.81;5282176;28;20045;-78
2024/02/14 01:47:01;;;;;;;9.73;3.95;;;;;;;10.97;100.00;101457.03;5282029;28;20473;-75
2024/02/14 01:49:32;;;;;;;8.20;4.10;;;;;;;10.88;100.00;101456.09;5286634;28;20268;-75
2024/02/14 01:52:03;;;;;;;6.93;3.90;;;;;;;10.98;100.00;101458.69;5282880;28;20027;-77
2024/02/14 01:54:34;;;;;;;7.38;3.67;;;;;;;10.97;100.00;101465.91;5290971;27;20534;-75
2024/02/14 01:57:06;;;;;;;14.82;3.85;;;;;;;10.94;100.00;101458.16;5281366;28;20016;-79
2024/02/14 01:59:36;;;;;;;7.80;3.90;;;;;;;11.03;100.00;101456.41;5282277;28;20023;-76
2024/02/14 02:02:07;;;;;;;8.95;4.18;;;;;;;10.94;100.00;101452.78;5283107;28;20027;-75
2024/02/14 02:04:37;;;;;;;8.48;3.63;;;;;;;10.92;100.00;101453.94;5290986;27;20015;-77
2024/02/14 02:07:08;;;;;;;8.40;4.75;;;;;;;11.01;100.00;101455.72;5283319;28;20027;-75
2024/02/14 02:09:38;;;;;;;8.60;3.92;;;;;;;11.03;100.00;101453.72;5290446;28;20063;-77
2024/02/14 02:12:09;;;;;;;12.20;5.20;;;;;;;10.89;100.00;101455.09;5286561;27;20125;-75
2024/02/14 02:14:40;;;;;;;8.23;4.30;;;;;;;11.00;100.00;101457.56;5292761;27;20019;-74
2024/02/14 02:17:12;;;;;;;10.13;4.70;;;;;;;10.89;100.00;101455.09;5289788;27;20102;-74
2024/02/14 02:19:43;;;;;;;10.75;4.47;;;;;;;10.84;100.00;101444.84;5293450;27;20019;-77
2024/02/14 02:22:14;;;;;;;8.73;4.28;;;;;;;10.87;100.00;101436.47;5291901;27;20106;-76
2024/02/14 02:24:45;;;;;;;9.63;4.82;;;;;;;10.75;100.00;101432.34;5291801;27;20112;-74
2024/02/14 02:27:16;;;;;;;9.82;5.05;;;;;;;10.77;100.00;101432.16;5291381;27;20023;-74
2024/02/14 02:29:47;;;;;;;9.35;5.50;;;;;;;10.87;100.00;101446.34;5284369;27;20020;-75
2024/02/14 02:32:18;;;;;;;10.60;4.80;;;;;;;10.88;100.00;101456.09;5294229;27;20034;-75
2024/02/14 02:34:48;;;;;;;8.35;4.07;;;;;;;10.77;100.00;101456.31;5290638;27;20027;-75
2024/02/14 02:37:19;;;;;;;8.80;4.50;;;;;;;10.86;100.00;101460.78;5284376;28;20392;-74
2024/02/14 02:39:49;;;;;;;13.70;4.53;;;;;;;10.89;100.00;101469.38;5291019;27;20019;-77
2024/02/14 02:42:19;;;;;;;11.75;4.38;;;;;;;10.88;100.00;101461.47;5288880;27;20020;-75
2024/02/14 02:44:50;;;;;;;11.25;4.50;;;;;;;10.91;100.00;101460.31;5290567;27;20024;-75
2024/02/14 02:47:22;;;;;;;10.40;5.03;;;;;;;10.85;100.00;101468.00;5288840;27;20028;-75
2024/02/14 02:49:53;;;;;;;9.27;4.57;;;;;;;10.91;100.00;101473.75;5290550;27;20019;-74
2024/02/14 02:52:23;;;;;;;8.02;4.32;;;;;;;10.95;100.00;101470.59;5284802;27;20024;-76
2024/02/14 02:55:05;;;;;;;9.55;4.85;;;;;;;10.89;100.00;101466.69;5281633;28;20217;-75
2024/02/14 02:57:38;;;;;;;9.63;4.70;;;;;;;11.02;100.00;101473.50;5289812;27;20076;-75
2024/02/14 03:00:11;;;;;;;11.13;5.28;;;;;;;10.97;100.00;101462.38;5288692;27;20473;-75
2024/02/14 03:02:44;;;;;;;12.85;5.18;;;;;;;10.88;100.00;101473.03;5289048;27;20507;-75
2024/02/14 03:05:18;;;;;;;11.73;5.18;;;;;;;10.96;100.00;101469.59;5284289;27;20012;-75
2024/02/14 03:07:49;;;;;;;11.38;5.15;;;;;;;10.91;100.00;101474.59;5292266;27;21010;-74
2024/02/14 03:10:21;;;;;;;12.70;5.03;;;;;;;10.87;100.00;101484.78;5293514;27;20019;-73
2024/02/14 03:12:52;;;;;;;14.25;5.90;;;;;;;10.79;100.00;101476.66;5290081;27;20051;-73
2024/02/14 03:15:25;;;;;;;17.35;6.60;;;;;;;10.76;100.00;101485.00;5287851;27;20027;-74
2024/02/14 03:17:56;;;;;;;18.58;7.50;;;;;;;10.77;100.00;101485.84;5282644;27;20027;-76
2024/02/14 03:20:29;;;;;;;15.15;6.78;;;;;;;10.83;100.00;101493.28;5289014;27;20020;-74
2024/02/14 03:22:59;;;;;;;12.52;6.90;;;;;;;10.82;100.00;101480.88;5287923;27;20023;-74
2024/02/14 03:25:30;;;;;;;17.00;8.00;;;;;;;10.68;100.00;101478.69;5286725;27;20397;-78
2024/02/14 03:28:00;;;;;;;17.15;7.53;;;;;;;10.77;100.00;101494.75;5287939;27;20016;-74
2024/02/14 03:30:32;;;;;;;18.42;8.13;;;;;;;10.88;100.00;101491.00;5289251;27;20107;-73
2024/02/14 03:33:03;;;;;;;20.27;8.88;;;;;;;10.71;100.00;101489.16;5283801;28;20020;-76
2024/02/14 03:35:33;;;;;;;15.85;7.55;;;;;;;10.59;100.00;101488.50;5291512;27;20689;-74
2024/02/14 03:38:04;;;;;;;14.10;7.55;;;;;;;10.76;100.00;101489.53;5284516;28;20026;-77
2024/02/14 03:40:36;;;;;;;18.30;8.27;;;;;;;10.80;100.00;101493.59;5283367;28;20022;-75
2024/02/14 03:43:11;;;;;;;22.05;9.07;;;;;;;10.92;100.00;101497.75;5287160;27;20015;-77
2024/02/14 03:45:42;;;;;;;15.73;8.20;;;;;;;10.89;100.00;101492.66;5286534;27;20030;-74
2024/02/14 03:48:12;;;;;;;16.42;8.23;;;;;;;10.91;100.00;101496.06;5287249;27;20384;-76
2024/02/14 03:50:44;;;;;;;20.73;9.30;;;;;;;10.82;100.00;101496.97;5280592;28;20432;-74
2024/02/14 03:53:14;;;;;;;22.40;9.77;;;;;;;10.78;100.00;101499.09;5282029;27;20039;-77
2024/02/14 03:55:45;;;;;;;18.92;9.75;;;;;;;10.85;100.00;101507.41;5276843;28;20377;-74
2024/02/14 03:58:22;;;;;;;18.83;9.63;;;;;;;10.76;100.00;101497.59;5286168;27;20108;-74
2024/02/14 04:00:52;;;;;;;23.02;11.07;;;;;;;10.75;100.00;101503.97;5285456;27;20051;-74
2024/02/14 04:03:23;;;;;;;26.08;10.20;;;;;;;10.77;100.00;101494.75;5279493;27;20030;-74
2024/02/14 04:05:53;;;;;;;24.02;11.02;;;;;;;10.82;100.00;101502.34;5282928;28;20106;-74
2024/02/14 04:08:24;;;;;;;26.92;13.05;;;;;;;10.83;100.00;101504.03;5280138;28;20102;-74
2024/02/14 04:10:54;;;;;;;29.25;10.88;;;;;;;10.86;100.00;101503.72;5285667;28;20016;-74
2024/02/14 04:13:25;;;;;;;24.73;10.98;;;;;;;10.81;100.00;101511.41;5286674;27;20548;-76
2024/02/14 04:15:55;;;;;;;23.65;11.30;;;;;;;10.73;100.00;101508.59;5287204;27;20011;-76
2024/02/14 04:18:26;;;;;;;22.13;10.80;;;;;;;10.89;100.00;101511.47;5282605;27;20110;-75
2024/02/14 04:20:56;;;;;;;22.20;11.02;;;;;;;10.90;100.00;101515.84;5285973;27;20024;-76
2024/02/14 04:23:27;;;;;;;22.95;11.20;;;;;;;10.88;100.00;101520.50;5280872;28;20076;-78
2024/02/14 04:25:58;;;;;;;26.23;10.45;;;;;;;10.88;100.00;101512.47;5286698;27;20030;-77
2024/02/14 04:28:28;;;;;;;22.70;11.40;;;;;;;10.87;100.00;101516.16;5281795;28;20030;-79
2024/02/14 04:30:59;;;;;;;28.73;10.93;;;;;;;10.92;100.00;101518.38;5274124;28;20461;-75
2024/02/14 04:33:30;;;;;;;22.42;10.40;;;;;;;10.92;100.00;101521.91;5279094;27;20094;-76
2024/02/14 04:36:00;;;;;;;24.77;10.57;;;;;;;10.84;100.00;101517.31;5283710;27;20372;-75
2024/02/14 04:38:31;;;;;;;26.10;10.77;;;;;;;10.83;100.00;101518.28;5283680;28;20126;-75
2024/02/14 04:41:01;;;;;;;25.27;11.15;;;;;;;10.73;100.00;101519.34;5278412;28;20035;-77
2024/02/14 04:43:31;;;;;;;21.73;11.02;;;;;;;10.73;100.00;101516.66;5285560;27;20122;-78
2024/02/14 04:46:06;;;;;;;25.67;10.25;;;;;;;10.87;100.00;101527.72;5284374;27;20064;-76
2024/02/14 04:48:37;;;;;;;18.52;10.43;;;;;;;10.83;100.00;101517.44;5282679;28;20051;-74
2024/02/14 04:51:07;;;;;;;21.75;10.35;;;;;;;10.87;100.00;101521.53;5284180;27;20062;-76
2024/02/14 04:53:38;;;;;;;25.60;10.23;;;;;;;10.94;100.00;101517.22;5281271;28;20020;-74
2024/02/14 04:56:08;;;;;;;22.58;10.30;;;;;;;10.88;100.00;101520.50;5279304;28;20069;-74
2024/02/14 04:58:39;;;;;;;18.85;9.20;;;;;;;10.83;100.00;101512.06;5281173;27;20020;-75
2024/02/14 05:01:10;;;;;;;17.90;9.27;;;;;;;10.92;100.00;101516.53;5282419;28;20492;-74
2024/02/14 05:03:40;;;;;;;18.33;9.60;;;;;;;10.96;100.00;101517.09;5282492;28;20024;-75
2024/02/14 05:06:11;;;;;;;20.88;9.70;;;;;;;11.02;100.00;101511.94;5279618;27;20477;-75
2024/02/14 05:08:41;;;;;;;24.45;9.82;;;;;;;11.00;100.00;101511.25;5282478;28;20027;-76
2024/02/14 05:11:12;;;;;;;21.50;9.45;;;;;;;11.04;100.00;101517.16;5280398;28;20132;-77
2024/02/14 05:13:43;;;;;;;22.65;10.30;;;;;;;11.08;100.00;101511.31;5281014;27;20072;-75
2024/02/14 05:16:18;;;;;;;20.67;10.43;;;;;;;11.19;100.00;101509.41;5280865;27;20012;-77
2024/02/14 05:18:49;;;;;;;19.33;10.57;;;;;;;11.20;100.00;101519.16;5280013;28;20024;-75
2024/02/14 05:21:21;;;;;;;20.60;8.77;;;;;;;11.23;100.00;101533.13;5280669;28;20053;-78
2024/02/14 05:23:52;;;;;;;22.63;9.52;;;;;;;11.17;100.00;101509.56;5285711;27;20428;-75
2024/02/14 05:26:22;;;;;;;25.70;10.35;;;;;;;11.22;100.00;101518.00;5279133;28;20020;-78
2024/02/14 05:28:53;;;;;;;18.90;10.15;;;;;;;11.26;100.00;101511.34;5282992;28;20437;-75
2024/02/14 05:31:23;;;;;;;20.25;10.07;;;;;;;11.08;100.00;101513.16;5278508;28;20032;-75
2024/02/14 05:33:54;;;;;;;23.17;11.23;;;;;;;11.23;100.00;101514.31;5285879;28;20016;-75
2024/02/14 05:36:25;;;;;;;22.95;10.63;;;;;;;11.19;100.00;101520.16;5277715;27;20016;-78
2024/02/14 05:38:55;;;;;;;23.92;9.77;;;;;;;11.18;100.00;101523.84;5283269;28;20019;-75
2024/02/14 05:41:26;;;;;;;20.73;10.48;;;;;;;11.24;100.00;101510.63;5277913;27;20031;-75
2024/02/14 05:43:57;;;;;;;19.42;10.48;;;;;;;11.31;100.00;101516.25;5281950;27;20027;-78
2024/02/14 05:46:28;;;;;;;24.50;9.95;;;;;;;11.30;100.00;101528.00;5285517;27;20111;-75
2024/02/14 05:48:59;;;;;;;20.85;10.40;;;;;;;11.29;100.00;101512.84;5280776;27;20022;-74
2024/02/14 05:51:29;;;;;;;20.40;9.90;;;;;;;11.31;100.00;101516.25;5285229;28;20042;-75
2024/02/14 05:54:00;;;;;;;21.40;9.00;;;;;;;11.35;100.00;101512.25;5279450;28;20493;-75
2024/02/14 05:56:30;;;;;;;17.88;9.20;;;;;;;11.33;100.00;101519.59;5281159;28;20020;-75
2024/02/14 05:59:01;;;;;;;24.55;8.98;;;;;;;11.38;100.00;101519.97;5285019;28;20031;-77
2024/02/14 06:01:31;;;;;;;20.30;8.43;;;;;;;11.48;100.00;101526.09;5283772;28;20028;-75
2024/02/14 06:04:02;;;;;;;17.77;9.07;;;;;;;11.55;100.00;101523.66;5283902;28;20396;-75
2024/02/14 06:06:32;;;;;;;20.92;9.45;;;;;;;11.48;100.00;101519.91;5281780;28;20024;-77
2024/02/14 06:09:09;;;;;;;17.77;8.73;;;;;;;11.46;100.00;101517.38;5280625;28;20396;-79
2024/02/14 06:11:40;;;;;;;15.80;8.07;;;;;;;11.55;100.00;101526.34;5285245;28;20193;-75
2024/02/14 06:14:10;;;;;;;19.67;9.15;;;;;;;11.52;100.00;101532.88;5283352;28;20106;-75
2024/02/14 06:16:40;;;;;;;22.23;8.98;;;;;;;11.62;100.00;101533.63;5278715;28;20127;-75
2024/02/14 06:19:11;;;;;;;17.30;8.15;;;;;;;11.60;100.00;101540.16;5279845;28;20026;-76
2024/02/14 06:21:42;;;;;;;19.08;9.48;;;;;;;11.61;100.00;101542.69;5277964;28;20039;-76
2024/02/14 06:24:13;;;;;;;20.40;9.02;;;;;;;11.71;100.00;101541.75;5276601;28;20460;-75
2024/02/14 06:26:43;;;;;;;29.08;8.27;;;;;;;11.61;100.00;101544.53;5278062;28;20028;-77
2024/02/14 06:29:14;;;;;;;21.55;8.70;;;;;;;11.63;100.00;101548.72;5280188;28;20042;-76
2024/02/14 06:31:44;;;;;;;15.52;8.40;;;;;;;11.64;100.00;101546.88;5277142;28;20114;-75
2024/02/14 06:34:15;;;;;;;16.63;8.35;;;;;;;11.59;100.00;101543.81;5281682;28;20472;-75
2024/02/14 06:36:47;;;;;;;16.40;7.75;;;;;;;11.67;100.00;101546.59;5279180;28;20503;-75
2024/02/14 06:39:17;;;;;;;20.42;9.18;;;;;;;11.65;100.00;101541.38;5282411;28;20711;-75
2024/02/14 06:41:48;;;;;;;18.60;8.35;;;;;;;11.64;100.00;101538.81;5281692;28;20019;-79
2024/02/14 06:44:18;;;;;;;23.17;8.73;;;;;;;11.65;100.00;101540.53;5279812;28;20063;-75
2024/02/14 06:46:49;;;;;;;22.67;9.13;;;;;;;11.77;100.00;101538.44;5278408;28;20046;-75
2024/02/14 06:49:19;;;;;;;24.65;9.68;;;;;;;11.73;100.00;101542.44;5281020;28;20027;-75
2024/02/14 06:51:50;;;;;;;23.90;8.45;;;;;;;11.79;100.00;101531.03;5282657;28;20022;-78
2024/02/14 06:54:20;;;;;;;19.60;8.88;;;;;;;11.73;100.00;101542.44;5278290;28;20473;-76
2024/02/14 06:56:51;;;;;;;19.92;8.50;;;;;;;11.89;100.00;101540.72;5277837;28;20460;-75
2024/02/14 06:59:21;;;;;;;25.95;8.95;;;;;;;11.82;100.00;101542.38;5287694;27;20023;-76
2024/02/14 07:01:54;;;;;;;20.63;8.75;;;;;;;11.88;100.00;101546.25;5281285;27;20035;-76
2024/02/14 07:04:25;;;;;;;18.98;8.05;;;;;;;11.91;100.00;101551.34;5288061;27;20484;-76
2024/02/14 07:06:56;;;;;;;23.67;9.90;;;;;;;11.86;100.00;101569.78;5274203;28;20032;-75
2024/02/14 07:09:26;;;;;;;21.23;8.65;;;;;;;11.97;100.00;101566.00;5284517;27;20106;-77
2024/02/14 07:11:58;;;;;;;19.45;8.70;;;;;;;11.90;100.00;101569.31;5286491;27;20502;-76
2024/02/14 07:14:28;;;;;;;19.45;8.90;;;;;;;11.91;100.00;101575.53;5283472;27;20031;-77
2024/02/14 07:16:59;;;;;;;22.42;8.85;;;;;;;11.85;100.00;101576.16;5279710;28;20384;-76
2024/02/14 07:19:29;;;;;;;18.08;8.38;;;;;;;11.88;100.00;101567.78;5281669;27;20106;-76
2024/02/14 07:22:00;;;;;;;22.00;8.20;;;;;;;11.96;100.00;101577.75;5283631;28;20023;-75
2024/02/14 07:24:30;;;;;;;21.27;8.50;;;;;;;11.95;100.00;101576.91;5286850;27;20499;-75
2024/02/14 07:27:01;;;;;;;19.70;8.02;;;;;;;11.89;100.00;101580.22;5281747;27;20126;-78
2024/02/14 07:29:31;;;;;;;27.80;10.13;;;;;;;11.93;100.00;101584.28;5283805;27;20054;-76
2024/02/14 07:32:02;;;;;;;18.38;8.13;;;;;;;11.97;100.00;101574.06;5279079;27;20295;-76
2024/02/14 07:34:32;;;;;;;23.08;8.45;;;;;;;11.94;100.00;101580.59;5280490;28;20061;-77
2024/02/14 07:37:03;;;;;;;18.45;8.15;;;;;;;11.96;100.00;101581.28;5269318;28;20019;-75
2024/02/14 07:39:35;;;;;;;22.42;8.77;;;;;;;11.91;100.00;101581.75;5277667;27;20028;-76
2024/02/14 07:42:05;;;;;;;19.90;8.68;;;;;;;11.98;100.00;101576.59;5281542;27;20020;-76
2024/02/14 07:44:36;;;;;;;21.17;8.02;;;;;;;11.91;100.00;101579.06;5279112;28;20067;-75
2024/02/14 07:47:06;;;;;;;25.15;8.55;;;;;;;11.89;100.00;101582.91;5277085;28;20385;-75
2024/02/14 07:49:37;;;;;;;21.00;8.93;;;;;;;11.93;100.00;101584.28;5276599;27;20019;-77
2024/02/14 07:52:07;;;;;;;19.45;8.27;;;;;;;12.03;100.00;101594.94;5280789;27;20038;-76
2024/02/14 07:54:38;;;;;;;30.02;8.77;;;;;;;12.09;100.00;101581.69;5281298;28;20023;-76
2024/02/14 07:57:08;;;;;;;18.60;8.48;;;;;;;12.14;100.00;101587.44;5274903;27;20381;-75
2024/02/14 07:59:39;;;;;;;23.40;8.40;;;;;;;12.02;100.00;101587.88;5284078;28;20016;-75
2024/02/14 08:02:09;;;;;;;22.42;8.20;;;;;;;12.16;100.00;101577.38;5279499;27;20472;-79
2024/02/14 08:04:40;;;;;;;24.27;8.52;;;;;;;12.10;100.00;101583.41;5284419;28;20106;-76
2024/02/14 08:07:10;;;;;;;18.60;8.32;;;;;;;12.09;100.00;101594.28;5272791;27;20106;-76
2024/02/14 08:09:41;;;;;;;20.52;8.30;;;;;;;12.27;100.00;101591.56;5282461;28;20027;-76
2024/02/14 08:12:11;;;;;;;28.10;9.35;;;;;;;12.22;100.00;101585.81;5284646;28;20023;-75
2024/02/14 08:14:41;;;;;;;16.08;7.15;;;;;;;12.23;100.00;101587.50;5281019;27;20027;-79
2024/02/14 08:17:12;;;;;;;19.40;7.80;;;;;;;12.23;100.00;101592.88;5285584;27;20104;-76
2024/02/14 08:19:43;;;;;;;17.85;7.75;;;;;;;12.46;100.00;101596.72;5279294;28;20027;-75
2024/02/14 08:22:13;;;;;;;18.15;7.38;;;;;;;12.39;100.00;101606.41;5284044;27;20027;-77
2024/02/14 08:24:44;;;;;;;20.38;7.88;;;;;;;12.29;100.00;101603.00;5283432;28;20142;-77
2024/02/14 08:27:14;;;;;;;18.80;8.48;;;;;;;12.37;100.00;101613.81;5283803;27;20027;-76
2024/02/14 08:29:45;;;;;;;22.25;8.88;;;;;;;12.32;100.00;101600.00;5281672;27;20481;-76
2024/02/14 08:32:15;;;;;;;28.33;11.38;;;;;;;12.18;100.00;101606.81;5279264;28;20103;-75
2024/02/14 08:34:46;;;;;;;20.10;9.25;;;;;;;12.18;100.00;101615.72;5286223;27;20073;-75
2024/02/14 08:37:16;;;;;;;21.30;9.30;;;;;;;12.31;100.00;101604.53;5285075;27;20020;-78
2024/02/14 08:39:47;;;;;;;21.98;10.38;;;;;;;12.09;100.00;101613.97;5281917;27;20027;-76
2024/02/14 08:42:17;;;;;;;23.13;10.45;;;;;;;12.10;100.00;101618.38;5282700;28;20076;-76
2024/02/14 08:44:48;;;;;;;20.35;10.98;;;;;;;12.13;100.00;101618.03;5281852;27;20533;-78
2024/02/14 08:47:19;;;;;;;26.48;11.43;;;;;;;12.15;100.00;101624.13;5279990;27;20023;-76
2024/02/14 08:49:49;;;;;;;28.13;11.85;;;;;;;12.27;100.00;101621.16;5282679;28;20072;-76
2024/02/14 08:52:21;;;;;;;27.50;10.45;;;;;;;12.33;100.00;101623.22;5280397;28;20020;-75
2024/02/14 08:54:51;;;;;;;31.23;12.35;;;;;;;12.35;100.00;101623.88;5281789;28;20131;-76
2024/02/14 08:57:23;;;;;;;26.08;11.18;;;;;;;12.28;100.00;101634.44;5279001;28;20111;-76
2024/02/14 08:59:54;;;;;;;25.83;10.50;;;;;;;12.18;100.00;101639.94;5286063;27;20015;-75
2024/02/14 09:02:25;;;;;;;28.02;10.50;;;;;;;12.06;100.00;101641.19;5278572;27;20052;-75
2024/02/14 09:04:55;;;;;;;29.20;11.00;;;;;;;11.99;100.00;101647.34;5282245;28;20025;-76
2024/02/14 09:07:26;;;;;;;29.08;10.65;;;;;;;12.05;100.00;101647.56;5281213;27;20019;-75
2024/02/14 09:09:57;;;;;;;26.05;9.85;;;;;;;12.09;100.00;101634.63;5281207;27;20071;-79
2024/02/14 09:12:27;;;;;;;28.98;11.57;;;;;;;12.21;100.00;101646.00;5280664;27;20038;-76
2024/02/14 09:14:58;;;;;;;21.92;11.02;;;;;;;12.25;100.00;101631.22;5279848;28;20102;-76
2024/02/14 09:17:29;;;;;;;20.52;11.05;;;;;;;12.29;100.00;101627.22;5285248;27;20072;-78
2024/02/14 09:20:01;;;;;;;22.90;10.38;;;;;;;12.40;100.00;101630.50;5278792;28;20019;-76
2024/02/14 09:22:33;;;;;;;22.10;10.50;;;;;;;12.31;100.00;101636.00;5281020;28;20035;-79
2024/02/14 09:25:05;;;;;;;20.27;9.95;;;;;;;12.42;100.00;101635.72;5281827;28;20027;-79
2024/02/14 09:27:36;;;;;;;18.98;9.95;;;;;;;12.41;100.00;101632.19;5280308;27;20042;-76
2024/02/14 09:30:07;;;;;;;26.63;10.57;;;;;;;12.47;100.00;101638.78;5280757;28;20019;-75
2024/02/14 09:32:37;;;;;;;24.20;10.60;;;;;;;12.56;100.00;101643.19;5278702;28;20051;-78
2024/02/14 09:35:08;;;;;;;22.05;10.05;;;;;;;12.48;100.00;101639.63;5281035;28;20132;-75
2024/02/14 09:37:39;;;;;;;21.50;10.52;;;;;;;12.60;100.00;101639.19;5282758;28;20024;-76
2024/02/14 09:40:16;;;;;;;25.92;10.70;;;;;;;12.52;100.00;101636.44;5280311;28;20011;-79
2024/02/14 09:42:55;;;;;;;24.65;10.75;;;;;;;12.54;100.00;101629.03;5284637;27;20028;-76
2024/02/14 09:45:26;;;;;;;24.70;11.00;;;;;;;12.42;100.00;101633.03;5280787;28;20032;-76
2024/02/14 09:47:57;;;;;;;33.00;12.13;;;;;;;12.32;100.00;101640.34;5281776;28;20361;-76
2024/02/14 09:50:30;;;;;;;21.50;10.65;;;;;;;12.55;100.00;101630.75;5279739;28;20031;-77
2024/02/14 09:53:02;;;;;;;21.70;11.60;;;;;;;12.48;100.00;101631.53;5275897;28;20678;-76
2024/02/14 09:55:33;;;;;;;26.80;12.05;;;;;;;12.44;100.00;101631.00;5280662;28;20020;-76
2024/02/14 09:58:06;;;;;;;29.88;12.43;;;;;;;12.47;100.00;101629.84;5280350;28;20011;-77
2024/02/14 10:00:37;;;;;;;29.45;12.52;;;;;;;12.41;100.00;101642.09;5281684;28;20059;-76
2024/02/14 10:03:07;;;;;;;27.48;11.73;;;;;;;12.37;100.00;101635.34;5285111;28;20131;-76
2024/02/14 10:05:38;;;;;;;25.23;12.75;;;;;;;12.42;100.00;101641.09;5282853;28;20080;-81
2024/02/14 10:08:10;;;;;;;27.27;13.07;;;;;;;12.47;100.00;101643.31;5282353;28;20048;-77
2024/02/14 10:10:40;;;;;;;28.73;12.85;;;;;;;12.58;100.00;101637.66;5281617;28;20023;-78
2024/02/14 10:13:11;;;;;;;23.55;13.02;;;;;;;12.44;100.00;101636.38;5273238;28;20029;-77
2024/02/14 10:15:41;;;;;;;22.13;10.75;;;;;;;12.57;100.00;101642.19;5283203;28;20023;-77
2024/02/14 10:18:12;;;;;;;26.27;12.90;;;;;;;12.61;100.00;101638.19;5283377;28;20404;-77
2024/02/14 10:20:53;;;;;;;22.20;11.45;;;;;;;12.63;100.00;101646.09;5286018;28;20024;-78
2024/02/14 10:23:23;;;;;;;25.92;12.23;;;;;;;12.57;100.00;101644.88;5276597;28;20047;-76
2024/02/14 10:25:55;;;;;;;26.13;11.82;;;;;;;12.61;100.00;101645.41;5284751;28;20019;-79
2024/02/14 10:28:26;;;;;;;23.83;11.23;;;;;;;12.68;100.00;101641.91;5285573;28;20031;-76
2024/02/14 10:30:57;;;;;;;22.17;11.85;;;;;;;12.77;100.00;101656.25;5283822;28;20020;-78
2024/02/14 10:33:29;;;;;;;20.90;10.57;;;;;;;12.73;100.00;101648.66;5286242;28;20028;-77
2024/02/14 10:36:02;;;;;;;23.25;9.55;;;;;;;12.79;100.00;101651.53;5283506;27;20384;-76
2024/02/14 10:38:33;;;;;;;19.50;9.60;;;;;;;12.78;100.00;101649.88;5288565;27;20024;-79
2024/02/14 10:41:03;;;;;;;18.52;9.43;;;;;;;12.85;100.00;101656.31;5281333;27;20027;-77
2024/02/14 10:43:34;;;;;;;18.02;8.07;;;;;;;12.87;100.00;101653.44;5281533;27;20114;-77
2024/02/14 10:46:11;;;;;;;13.93;7.97;;;;;;;12.86;100.00;101662.53;5282291;27;20468;-79
2024/02/14 10:48:42;;;;;;;26.23;14.02;;;;;;;12.92;100.00;101662.72;5284832;27;20081;-76
2024/02/14 10:51:15;;;;;;;16.60;7.70;;;;;;;12.92;100.00;101664.56;5290387;27;20019;-76
2024/02/14 10:53:48;;;;;;;11.35;6.68;;;;;;;12.91;100.00;101660.19;5276346;27;20100;-76
2024/02/14 10:56:20;;;;;;;14.20;6.53;;;;;;;13.00;100.00;101658.38;5281447;27;20020;-76
2024/02/14 10:58:54;;;;;;;13.35;6.60;;;;;;;13.07;100.00;101659.41;5287875;27;20462;-76
2024/02/14 11:01:28;;;;;;;10.23;5.60;;;;;;;13.12;100.00;101659.78;5283093;28;20499;-78
2024/02/14 11:04:00;;;;;;;11.07;5.80;;;;;;;13.09;100.00;101655.53;5285899;27;20020;-76
2024/02/14 11:06:31;;;;;;;9.98;5.18;;;;;;;13.01;100.00;101658.22;5282572;27;20027;-80
2024/02/14 11:09:10;;;;;;;7.10;4.30;;;;;;;13.05;100.00;101647.94;5283885;27;20453;-77
2024/02/14 11:11:42;;;;;;;9.25;5.35;;;;;;;13.05;100.00;101645.25;5287193;27;20046;-77
2024/02/14 11:14:15;;;;;;;6.75;4.63;;;;;;;13.06;100.00;101650.50;5283057;27;20075;-80
2024/02/14 11:16:46;;;;;;;9.27;4.70;;;;;;;13.15;100.00;101654.91;5284450;27;20362;-77
2024/02/14 11:19:16;;;;;;;6.93;4.22;;;;;;;13.13;100.00;101643.44;5281863;27;20024;-76
2024/02/14 11:21:48;;;;;;;7.30;3.72;;;;;;;13.03;100.00;101642.72;5284156;27;20130;-77
2024/02/14 11:24:18;;;;;;;6.32;4.07;;;;;;;13.02;100.00;101641.06;5281226;28;20058;-76
2024/02/14 11:26:51;;;;;;;7.30;4.10;;;;;;;12.88;100.00;101644.34;5280791;27;20458;-77